ORD weather

Chicago O'Hare International Airport
Chicago, Illinois, United States

Public forecast

Using degrees Fahrenheit for public forecast. Weather courtesy of forecast.io.

Current aviation weather report (METAR) for Chicago O'Hare International Airport

Retrieved 2020/04/01 10:51 UTC (40 minutes ago):

KORD 011051Z 36007KT 10SM FEW030 OVC065 03/00 A3004 RMK AO2 SLP177 T00330000

Aviation forecast (TAF) for Chicago O'Hare International Airport

Retrieved 2020/04/01 06:33 UTC (5 hours ago):

TAF KORD 010530Z 0106/0212 35009KT P6SM BKN012 OVC035 FM010900 35006KT P6SM SCT008 OVC012 FM011600 03008KT P6SM BKN020 FM012100 04008KT P6SM SCT025 BKN035 FM020100 05005KT P6SM FEW035